createdAt,value
2023-02-09T00:01:07.876Z,44.50
2023-02-09T00:04:35.692Z,44.10
2023-02-09T00:08:02.915Z,44.20
2023-02-09T00:11:49.881Z,45.60
2023-02-09T00:15:16.686Z,46.60
2023-02-09T00:18:43.312Z,48.50
2023-02-09T00:22:10.037Z,46.20
2023-02-09T00:25:36.536Z,47.80
2023-02-09T00:29:04.286Z,47.50
2023-02-09T00:32:32.610Z,46.40
2023-02-09T00:35:59.067Z,45.20
2023-02-09T00:39:25.862Z,49.30
2023-02-09T00:42:52.999Z,48.80
2023-02-09T00:46:20.292Z,47.70
2023-02-09T00:49:47.113Z,47.10
2023-02-09T00:53:13.564Z,47.50
2023-02-09T00:56:41.136Z,48.30
2023-02-09T01:00:08.475Z,48.60
2023-02-09T01:03:39.300Z,48.10
2023-02-09T01:07:06.869Z,47.80
2023-02-09T01:10:33.459Z,49.70
2023-02-09T01:14:02.857Z,48.60
2023-02-09T01:17:30.463Z,46.60
2023-02-09T01:20:57.537Z,48.10
2023-02-09T01:24:24.217Z,47.20
2023-02-09T01:27:51.718Z,47.80
2023-02-09T01:31:26.380Z,45.50
2023-02-09T01:34:56.169Z,46.70
2023-02-09T01:38:25.360Z,47.00
2023-02-09T01:41:51.844Z,46.70
2023-02-09T01:45:31.287Z,46.30
2023-02-09T01:49:03.562Z,46.50
2023-02-09T01:52:32.156Z,46.30
2023-02-09T01:56:06.244Z,47.70
2023-02-09T01:59:34.713Z,45.00
2023-02-09T02:03:05.932Z,46.30
2023-02-09T02:06:34.008Z,47.30
2023-02-09T02:10:01.464Z,45.50
2023-02-09T02:13:28.537Z,47.00
2023-02-09T02:17:04.612Z,44.90
2023-02-09T02:21:06.691Z,48.10
2023-02-09T02:25:04.011Z,44.30
2023-02-09T02:28:47.177Z,44.00
2023-02-09T02:32:22.968Z,45.30
2023-02-09T02:35:56.836Z,43.00
2023-02-09T02:39:28.235Z,44.30
2023-02-09T02:43:01.859Z,42.90
2023-02-09T02:46:34.887Z,43.60
2023-02-09T02:50:07.731Z,44.30
2023-02-09T02:53:37.577Z,32.70
2023-02-09T02:57:09.179Z,41.90
2023-02-09T03:00:41.283Z,41.80
2023-02-09T03:04:09.547Z,42.90
2023-02-09T03:07:36.456Z,43.40
2023-02-09T03:11:04.446Z,43.00
2023-02-09T03:14:43.637Z,42.50
2023-02-09T03:18:21.291Z,43.20
2023-02-09T03:21:53.928Z,41.90
2023-02-09T03:25:25.646Z,43.20
2023-02-09T03:28:57.433Z,42.50
2023-02-09T03:32:26.641Z,42.80
2023-02-09T03:35:56.428Z,41.30
2023-02-09T03:39:27.085Z,43.10
2023-02-09T03:42:58.344Z,44.40
2023-02-09T03:46:25.508Z,42.70
2023-02-09T03:49:52.741Z,40.40
2023-02-09T03:53:20.609Z,41.80
2023-02-09T03:56:47.505Z,40.70
2023-02-09T04:00:17.862Z,42.20
2023-02-09T04:03:44.867Z,41.20
2023-02-09T04:07:12.506Z,41.50
2023-02-09T04:10:40.442Z,41.60
2023-02-09T04:14:16.536Z,38.90
2023-02-09T04:17:45.852Z,41.80
2023-02-09T04:21:12.920Z,41.90
2023-02-09T04:24:39.944Z,42.30
2023-02-09T04:28:07.302Z,40.70
2023-02-09T04:31:35.058Z,40.30
2023-02-09T04:35:02.311Z,39.80
2023-02-09T04:38:29.858Z,39.20
2023-02-09T04:41:58.047Z,39.70
2023-02-09T04:45:24.831Z,40.30
2023-02-09T04:48:52.161Z,40.90
2023-02-09T04:52:19.656Z,39.50
2023-02-09T04:55:48.864Z,41.40
2023-02-09T04:59:36.620Z,41.90
2023-02-09T05:03:05.212Z,39.70
2023-02-09T05:06:31.960Z,41.50
2023-02-09T05:09:59.610Z,41.90
2023-02-09T05:13:28.480Z,40.60
2023-02-09T05:16:55.921Z,41.80
2023-02-09T05:20:23.247Z,41.70
2023-02-09T05:23:50.243Z,41.80
2023-02-09T05:27:17.531Z,42.10
2023-02-09T05:30:44.900Z,42.40
2023-02-09T05:34:12.139Z,41.00
2023-02-09T05:37:39.971Z,42.00
2023-02-09T05:41:11.816Z,43.20
2023-02-09T05:44:38.427Z,42.60
2023-02-09T05:48:05.761Z,42.40
2023-02-09T05:51:33.231Z,44.70
2023-02-09T05:55:00.818Z,43.10
2023-02-09T05:58:35.030Z,42.50
2023-02-09T06:02:03.303Z,41.90
2023-02-09T06:05:30.894Z,43.40
2023-02-09T06:08:59.567Z,42.50
2023-02-09T06:12:27.065Z,43.40
2023-02-09T06:15:54.127Z,42.40
2023-02-09T06:19:23.043Z,43.60
2023-02-09T06:22:50.594Z,44.80
2023-02-09T06:26:19.764Z,45.00
2023-02-09T06:29:46.610Z,44.90
2023-02-09T06:33:13.496Z,45.30
2023-02-09T06:36:40.516Z,44.40
2023-02-09T06:40:11.239Z,45.00
2023-02-09T06:43:38.555Z,46.00
2023-02-09T06:47:05.535Z,46.10
2023-02-09T06:50:32.837Z,48.10
2023-02-09T06:53:59.703Z,47.60
2023-02-09T06:57:26.633Z,46.40
2023-02-09T07:00:53.751Z,46.90
2023-02-09T07:04:21.263Z,48.30
2023-02-09T07:07:48.425Z,45.70
2023-02-09T07:11:17.458Z,46.10
2023-02-09T07:14:44.579Z,48.10
2023-02-09T07:18:11.320Z,47.40
2023-02-09T07:21:38.250Z,50.70
2023-02-09T07:25:05.991Z,52.10
2023-02-09T07:28:33.796Z,50.40
2023-02-09T07:32:01.522Z,50.90
2023-02-09T07:35:28.476Z,51.60
2023-02-09T07:38:56.269Z,52.10
2023-02-09T07:42:24.207Z,51.50
2023-02-09T07:46:02.672Z,50.70
2023-02-09T07:49:30.106Z,55.40
2023-02-09T07:52:58.043Z,52.90
2023-02-09T07:56:25.390Z,54.50
2023-02-09T07:59:58.217Z,55.20
2023-02-09T08:03:27.465Z,53.20
2023-02-09T08:06:56.559Z,56.90
2023-02-09T08:10:27.229Z,56.80
2023-02-09T08:13:56.100Z,53.70
2023-02-09T08:17:26.216Z,54.70
2023-02-09T08:20:54.804Z,58.20
2023-02-09T08:24:24.186Z,54.20
2023-02-09T08:27:51.563Z,52.80
2023-02-09T08:31:23.185Z,54.50
2023-02-09T08:34:50.666Z,45.30
2023-02-09T08:38:17.982Z,54.20
2023-02-09T08:41:46.261Z,54.70
2023-02-09T08:45:13.776Z,52.80
2023-02-09T08:48:42.027Z,50.10
2023-02-09T08:52:11.473Z,50.70
2023-02-09T08:55:40.945Z,46.80
2023-02-09T08:59:08.902Z,50.00
2023-02-09T09:02:36.214Z,50.90
2023-02-09T09:06:06.404Z,48.00
2023-02-09T09:09:33.882Z,51.30
2023-02-09T09:13:00.616Z,49.40
2023-02-09T09:16:27.532Z,48.80
2023-02-09T09:19:56.574Z,57.10
2023-02-09T09:23:24.085Z,50.50
2023-02-09T09:26:50.633Z,49.70
2023-02-09T09:30:18.522Z,48.40
2023-02-09T09:33:46.326Z,49.90
2023-02-09T09:37:13.167Z,48.50
2023-02-09T09:40:43.094Z,48.40
2023-02-09T09:44:20.844Z,46.90
2023-02-09T09:47:48.380Z,46.50
2023-02-09T09:51:19.826Z,46.80
2023-02-09T09:54:49.449Z,45.90
2023-02-09T09:58:21.901Z,44.20
2023-02-09T10:01:50.054Z,43.80
2023-02-09T10:05:21.750Z,46.50
2023-02-09T10:08:55.167Z,44.10
2023-02-09T10:12:34.267Z,45.60
2023-02-09T10:16:01.955Z,45.70
2023-02-09T10:19:33.398Z,41.20
2023-02-09T10:23:04.525Z,49.40
2023-02-09T10:26:35.123Z,47.20
2023-02-09T10:30:28.828Z,47.20
2023-02-09T10:34:04.770Z,40.30
2023-02-09T10:37:38.574Z,41.90
2023-02-09T10:41:10.140Z,44.90
2023-02-09T10:44:40.473Z,49.30
2023-02-09T10:48:22.812Z,37.20
2023-02-09T10:51:52.854Z,40.40
2023-02-09T10:55:24.356Z,40.60
2023-02-09T10:59:00.930Z,44.10
2023-02-09T11:02:43.533Z,44.70
2023-02-09T11:06:19.020Z,42.40
2023-02-09T11:09:55.496Z,69.00
2023-02-09T11:13:32.358Z,53.70
2023-02-09T11:17:29.796Z,48.90
2023-02-09T11:21:07.454Z,46.00
2023-02-09T11:24:59.405Z,40.70
2023-02-09T11:28:41.108Z,44.20
2023-02-09T11:32:19.519Z,51.40
2023-02-09T11:35:57.567Z,54.30
2023-02-09T11:39:37.475Z,57.10
2023-02-09T11:43:17.423Z,52.30
2023-02-09T11:46:50.419Z,50.70
2023-02-09T11:50:26.930Z,54.50
2023-02-09T11:54:03.862Z,52.10
2023-02-09T11:57:36.388Z,54.70
2023-02-09T12:01:16.823Z,51.00
2023-02-09T12:04:49.692Z,53.20
2023-02-09T12:08:54.622Z,54.50
2023-02-09T12:12:29.912Z,51.60
2023-02-09T12:16:03.792Z,54.40
2023-02-09T12:19:36.646Z,67.80
2023-02-09T12:23:08.131Z,54.10
2023-02-09T12:26:45.780Z,49.00
2023-02-09T12:30:42.822Z,55.70
2023-02-09T12:34:40.647Z,56.20
2023-02-09T12:38:21.814Z,59.00
2023-02-09T12:42:23.457Z,57.10
2023-02-09T12:46:27.851Z,60.00
2023-02-09T12:50:07.857Z,53.10
2023-02-09T12:53:49.429Z,49.90
2023-02-09T12:57:53.607Z,41.70
2023-02-09T13:01:22.199Z,46.00
2023-02-09T13:04:58.441Z,54.60
2023-02-09T13:08:41.362Z,51.50
2023-02-09T13:12:15.010Z,58.60
2023-02-09T13:15:57.633Z,53.30
2023-02-09T13:20:01.406Z,48.00
2023-02-09T13:23:37.388Z,54.50
2023-02-09T13:27:04.575Z,46.00
2023-02-09T13:30:35.831Z,39.20
2023-02-09T13:34:06.073Z,48.00
2023-02-09T13:37:41.707Z,42.80
2023-02-09T13:41:25.014Z,42.70
2023-02-09T13:44:56.777Z,42.10
2023-02-09T13:48:28.604Z,44.30
2023-02-09T13:52:16.581Z,49.60
2023-02-09T13:55:45.680Z,51.00
2023-02-09T13:59:17.911Z,46.40
2023-02-09T14:02:49.317Z,46.90
2023-02-09T14:06:36.781Z,45.70
2023-02-09T14:10:25.112Z,45.20
2023-02-09T14:14:14.449Z,47.20
2023-02-09T14:17:56.166Z,44.60
2023-02-09T14:21:50.469Z,45.30
2023-02-09T14:25:26.858Z,42.20
2023-02-09T14:29:05.069Z,41.90
2023-02-09T14:32:47.344Z,43.60
2023-02-09T14:36:34.531Z,45.00
2023-02-09T14:40:25.250Z,41.50
2023-02-09T14:44:02.610Z,43.10
2023-02-09T14:47:42.976Z,44.10
2023-02-09T14:51:17.785Z,43.00
2023-02-09T14:54:50.542Z,38.70
2023-02-09T14:58:25.069Z,38.90
2023-02-09T15:01:54.890Z,40.00
2023-02-09T15:05:24.200Z,39.10
2023-02-09T15:08:51.214Z,39.50
2023-02-09T15:12:25.201Z,42.00
2023-02-09T15:15:55.214Z,39.20
2023-02-09T15:19:25.143Z,39.90
2023-02-09T15:22:53.071Z,40.80
2023-02-09T15:26:23.006Z,45.80
2023-02-09T15:29:50.023Z,54.30
2023-02-09T15:33:16.773Z,54.20
2023-02-09T15:36:43.712Z,64.90
2023-02-09T15:40:42.912Z,62.60
2023-02-09T15:44:41.714Z,60.40
2023-02-09T15:48:11.017Z,54.40
2023-02-09T15:51:40.353Z,42.10
2023-02-09T15:55:09.094Z,38.20
2023-02-09T15:58:41.140Z,34.40
2023-02-09T16:02:14.288Z,35.40
2023-02-09T16:05:41.405Z,35.30
2023-02-09T16:09:19.360Z,34.80
2023-02-09T16:12:48.292Z,37.50
2023-02-09T16:16:17.606Z,59.60
2023-02-09T16:19:46.293Z,65.30
2023-02-09T16:23:20.791Z,72.40
2023-02-09T16:26:49.410Z,72.10
2023-02-09T16:30:21.602Z,66.70
2023-02-09T16:33:51.730Z,80.30
2023-02-09T16:37:20.117Z,91.50
2023-02-09T16:40:48.204Z,78.00
2023-02-09T16:44:19.911Z,67.20
2023-02-09T16:47:50.666Z,50.10
2023-02-09T16:51:20.207Z,38.30
2023-02-09T16:54:52.412Z,36.50
2023-02-09T16:58:21.596Z,40.40
2023-02-09T17:01:49.717Z,44.50
2023-02-09T17:05:23.211Z,49.40
2023-02-09T17:08:50.881Z,41.50
2023-02-09T17:12:18.263Z,43.00
2023-02-09T17:15:48.539Z,41.70
2023-02-09T17:19:23.141Z,47.90
2023-02-09T17:22:53.483Z,50.60
2023-02-09T17:26:21.956Z,44.60
2023-02-09T17:29:48.654Z,31.00
2023-02-09T17:33:27.801Z,29.70
2023-02-09T17:36:55.916Z,28.70
2023-02-09T17:40:24.342Z,32.50
2023-02-09T17:44:03.628Z,33.40
2023-02-09T17:51:03.369Z,33.30
2023-02-09T17:54:32.846Z,33.60
2023-02-09T17:58:01.754Z,34.10
2023-02-09T18:01:30.201Z,36.10
2023-02-09T18:04:58.330Z,41.20
2023-02-09T18:08:27.783Z,53.60
2023-02-09T18:12:10.314Z,43.20
2023-02-09T18:15:40.698Z,70.80
2023-02-09T18:19:07.904Z,64.80
2023-02-09T18:22:43.414Z,67.80
2023-02-09T18:26:12.247Z,71.90
2023-02-09T18:29:41.301Z,79.10
2023-02-09T18:33:09.086Z,70.10
2023-02-09T18:36:38.883Z,56.80
2023-02-09T18:40:07.845Z,40.70
2023-02-09T18:43:35.126Z,43.60
2023-02-09T18:47:03.144Z,46.70
2023-02-09T18:50:32.734Z,44.30
2023-02-09T18:54:02.202Z,43.90
2023-02-09T18:57:29.204Z,41.70
2023-02-09T19:00:57.780Z,40.10
2023-02-09T19:04:26.103Z,37.80
2023-02-09T19:07:54.992Z,33.50
2023-02-09T19:11:23.940Z,29.70
2023-02-09T19:14:52.695Z,29.80
2023-02-09T19:18:20.140Z,32.60
2023-02-09T19:21:52.427Z,31.90
2023-02-09T19:25:20.963Z,33.40
2023-02-09T19:28:48.751Z,34.90
2023-02-09T19:32:20.534Z,36.30
2023-02-09T19:35:56.600Z,33.30
2023-02-09T19:39:23.960Z,32.90
2023-02-09T19:42:51.459Z,34.20
2023-02-09T19:46:19.097Z,35.60
2023-02-09T19:49:46.734Z,35.00
2023-02-09T19:53:17.682Z,36.80
2023-02-09T19:56:45.487Z,36.40
2023-02-09T20:00:18.727Z,32.10
2023-02-09T20:03:45.809Z,30.20
2023-02-09T20:07:12.915Z,28.00
2023-02-09T20:10:42.260Z,28.50
2023-02-09T20:14:09.541Z,27.90
2023-02-09T20:17:37.467Z,27.40
2023-02-09T20:21:09.579Z,27.70
2023-02-09T20:24:37.496Z,27.40
2023-02-09T20:28:05.552Z,28.10
2023-02-09T20:31:35.869Z,27.70
2023-02-09T20:35:03.116Z,27.80
2023-02-09T20:38:30.482Z,27.40
2023-02-09T20:42:20.947Z,27.50
2023-02-09T20:46:05.382Z,28.00
2023-02-09T20:49:41.921Z,26.90
2023-02-09T20:53:14.209Z,25.50
2023-02-09T20:56:41.724Z,26.20
2023-02-09T21:00:11.119Z,26.40
2023-02-09T21:03:38.132Z,27.40
2023-02-09T21:07:06.219Z,26.70
2023-02-09T21:10:36.092Z,27.60
2023-02-09T21:14:03.976Z,26.50
2023-02-09T21:17:31.384Z,26.20
2023-02-09T21:21:00.642Z,26.60
2023-02-09T21:24:31.576Z,26.80
2023-02-09T21:28:00.354Z,29.30
2023-02-09T21:31:30.980Z,28.40
2023-02-09T21:34:58.698Z,25.40
2023-02-09T21:38:27.501Z,25.10
2023-02-09T21:42:12.983Z,24.90
2023-02-09T21:45:41.953Z,26.00
2023-02-09T21:49:10.173Z,27.30
2023-02-09T21:52:38.449Z,28.80
2023-02-09T21:56:10.692Z,31.90
2023-02-09T21:59:37.960Z,30.20
2023-02-09T22:03:06.647Z,28.30
2023-02-09T22:06:33.910Z,28.40
2023-02-09T22:10:05.617Z,28.50
2023-02-09T22:13:34.082Z,28.60
2023-02-09T22:17:06.853Z,28.60
2023-02-09T22:20:33.921Z,28.20
2023-02-09T22:24:01.259Z,27.30
2023-02-09T22:27:28.026Z,27.40
2023-02-09T22:30:55.192Z,26.50
2023-02-09T22:34:21.705Z,26.30
2023-02-09T22:37:48.956Z,26.50
2023-02-09T22:41:22.661Z,24.50
2023-02-09T22:44:49.638Z,24.00
2023-02-09T22:48:16.548Z,23.20
2023-02-09T22:51:43.859Z,23.50
2023-02-09T22:55:11.953Z,24.30
2023-02-09T22:58:39.086Z,23.00
2023-02-09T23:02:07.214Z,24.20
2023-02-09T23:05:36.075Z,23.00
2023-02-09T23:09:07.490Z,22.90
2023-02-09T23:12:34.571Z,21.40
2023-02-09T23:16:09.848Z,23.80
2023-02-09T23:19:38.073Z,23.10
2023-02-09T23:23:06.871Z,22.50
2023-02-09T23:26:38.547Z,22.50
2023-02-09T23:30:05.777Z,22.70
2023-02-09T23:33:36.699Z,21.60
2023-02-09T23:37:13.572Z,23.50
2023-02-09T23:40:47.325Z,25.80
2023-02-09T23:44:14.589Z,23.60
2023-02-09T23:47:43.445Z,22.30
2023-02-09T23:51:14.814Z,20.80
2023-02-09T23:54:43.486Z,18.70
2023-02-09T23:58:12.556Z,20.60
